Time;durP1;ratioP1;P1;durP2;ratioP2;P2;SDS_P1;SDS_P2;PMS_P1;PMS_P2;Temp;Humidity;BMP_temperature;BMP_pressure;BME280_temperature;BME280_humidity;BME280_pressure;Samples;Min_cycle;Max_cycle;Signal;HPM_P1;HPM_P2
2021/04/30 00:01:30;;;;;;;7.63;0.60;;;;;;;;;;5028488;28;20048;-53
2021/04/30 00:03:56;;;;;;;6.18;0.60;;;;;;;;;;5029949;28;20041;-56
2021/04/30 00:06:22;;;;;;;2.42;0.50;;;;;;;;;;5023036;28;20132;-57
2021/04/30 00:08:48;;;;;;;2.72;0.50;;;;;;;;;;5027541;28;20059;-56
2021/04/30 00:11:13;;;;;;;1.27;0.60;;;;;;;;;;5029070;28;20041;-58
2021/04/30 00:13:39;;;;;;;4.05;0.50;;;;;;;;;;5029251;28;20052;-55
2021/04/30 00:16:06;;;;;;;4.40;0.50;;;;;;;;;;5013168;28;20031;-56
2021/04/30 00:18:32;;;;;;;1.80;0.38;;;;;;;;;;5029211;28;20107;-57
2021/04/30 00:21:00;;;;;;;3.13;0.50;;;;;;;;;;5029145;28;20041;-56
2021/04/30 00:23:27;;;;;;;1.73;0.60;;;;;;;;;;5030269;28;20104;-56
2021/04/30 00:25:56;;;;;;;3.38;0.50;;;;;;;;;;5030138;28;20140;-57
2021/04/30 00:28:23;;;;;;;1.50;0.35;;;;;;;;;;5027807;28;20041;-58
2021/04/30 00:30:50;;;;;;;3.17;0.50;;;;;;;;;;5030308;28;20387;-58
2021/04/30 00:33:16;;;;;;;1.45;0.43;;;;;;;;;;5029314;28;21094;-57
2021/04/30 00:35:42;;;;;;;3.80;0.50;;;;;;;;;;5029198;28;20041;-58
2021/04/30 00:38:08;;;;;;;0.80;0.32;;;;;;;;;;5028122;28;20045;-57
2021/04/30 00:40:34;;;;;;;2.85;0.30;;;;;;;;;;5028825;28;20116;-57
2021/04/30 00:43:00;;;;;;;5.25;0.50;;;;;;;;;;5030143;28;20128;-58
2021/04/30 00:45:26;;;;;;;2.92;0.40;;;;;;;;;;5047604;28;20055;-58
2021/04/30 00:47:52;;;;;;;0.77;0.30;;;;;;;;;;5032415;28;20255;-58
2021/04/30 00:50:19;;;;;;;2.30;0.45;;;;;;;;;;5008373;28;20446;-56
2021/04/30 00:52:45;;;;;;;2.70;0.60;;;;;;;;;;5034411;28;20120;-55
2021/04/30 00:55:12;;;;;;;2.03;0.50;;;;;;;;;;5016370;28;20116;-55
2021/04/30 00:57:42;;;;;;;2.00;0.40;;;;;;;;;;5030758;28;20047;-57
2021/04/30 01:00:09;;;;;;;5.95;0.57;;;;;;;;;;5033524;28;20060;-57
2021/04/30 01:02:35;;;;;;;2.78;0.50;;;;;;;;;;5031830;28;20080;-57
2021/04/30 01:05:02;;;;;;;2.42;0.50;;;;;;;;;;5033806;28;20076;-55
2021/04/30 01:07:28;;;;;;;5.30;0.43;;;;;;;;;;5032308;28;20045;-57
2021/04/30 01:09:57;;;;;;;3.90;0.45;;;;;;;;;;5031326;28;20711;-54
2021/04/30 01:12:23;;;;;;;1.65;0.40;;;;;;;;;;5032319;28;20045;-57
2021/04/30 01:14:49;;;;;;;5.93;0.68;;;;;;;;;;5033329;28;20064;-56
2021/04/30 01:17:15;;;;;;;4.18;0.57;;;;;;;;;;5034421;28;20040;-56
2021/04/30 01:19:41;;;;;;;5.45;0.80;;;;;;;;;;5031632;28;20388;-56
2021/04/30 01:22:07;;;;;;;7.10;1.10;;;;;;;;;;5033576;28;20068;-56
2021/04/30 01:24:33;;;;;;;2.63;0.60;;;;;;;;;;5032334;28;20108;-60
2021/04/30 01:26:59;;;;;;;7.45;0.70;;;;;;;;;;5032493;28;20045;-57
2021/04/30 01:29:25;;;;;;;6.25;1.17;;;;;;;;;;5021284;28;20042;-55
2021/04/30 01:31:50;;;;;;;5.35;2.20;;;;;;;;;;5032737;28;20124;-56
2021/04/30 01:34:16;;;;;;;5.78;0.90;;;;;;;;;;5032876;28;20067;-59
2021/04/30 01:36:43;;;;;;;5.60;1.10;;;;;;;;;;5031987;28;20041;-56
2021/04/30 01:39:12;;;;;;;5.65;1.08;;;;;;;;;;5032554;28;20045;-57
2021/04/30 01:41:38;;;;;;;2.78;0.85;;;;;;;;;;5031165;28;20549;-54
2021/04/30 01:44:11;;;;;;;2.42;0.70;;;;;;;;;;5030771;28;20037;-58
2021/04/30 01:46:36;;;;;;;;;;;;;;;;;;5032242;28;20111;-58
2021/04/30 01:49:03;;;;;;;6.18;1.88;;;;;;;;;;5031185;28;20030;-58
2021/04/30 01:51:29;;;;;;;3.70;0.70;;;;;;;;;;5030719;28;20095;-58
2021/04/30 01:53:55;;;;;;;2.85;0.52;;;;;;;;;;5032134;28;20487;-58
2021/04/30 01:56:21;;;;;;;6.05;0.88;;;;;;;;;;5016047;28;20124;-57
2021/04/30 01:58:47;;;;;;;7.20;0.60;;;;;;;;;;5027611;28;20065;-58
2021/04/30 02:01:13;;;;;;;3.78;0.50;;;;;;;;;;5030357;28;20044;-56
2021/04/30 02:03:42;;;;;;;3.58;0.70;;;;;;;;;;5008160;28;20108;-57
2021/04/30 02:06:08;;;;;;;4.60;0.70;;;;;;;;;;5013440;28;20101;-55
2021/04/30 02:08:34;;;;;;;7.32;0.80;;;;;;;;;;5026702;28;20045;-57
2021/04/30 02:11:00;;;;;;;6.95;1.00;;;;;;;;;;5030036;28;20037;-58
2021/04/30 02:13:26;;;;;;;3.47;0.60;;;;;;;;;;5030446;28;20051;-57
2021/04/30 02:15:53;;;;;;;5.45;1.17;;;;;;;;;;5031138;28;20037;-55
2021/04/30 02:18:20;;;;;;;5.55;1.38;;;;;;;;;;5030716;28;20065;-56
2021/04/30 02:20:46;;;;;;;8.75;1.50;;;;;;;;;;5028645;28;20037;-57
2021/04/30 02:23:12;;;;;;;6.03;1.23;;;;;;;;;;5026904;28;20042;-56
2021/04/30 02:25:38;;;;;;;6.30;0.98;;;;;;;;;;4992156;28;20102;-56
2021/04/30 02:28:04;;;;;;;5.97;1.13;;;;;;;;;;5013467;28;20041;-59
2021/04/30 02:30:31;;;;;;;6.25;1.05;;;;;;;;;;5027853;28;20073;-60
2021/04/30 02:32:57;;;;;;;7.70;1.33;;;;;;;;;;5028930;28;20348;-59
2021/04/30 02:35:25;;;;;;;6.90;1.00;;;;;;;;;;5026183;28;20085;-57
2021/04/30 02:37:52;;;;;;;6.70;1.20;;;;;;;;;;5027208;28;20146;-58
2021/04/30 02:40:20;;;;;;;4.70;1.00;;;;;;;;;;5022175;28;20099;-58
2021/04/30 02:42:46;;;;;;;5.22;1.20;;;;;;;;;;5014407;28;20077;-58
2021/04/30 02:45:13;;;;;;;5.30;1.10;;;;;;;;;;5026457;28;20665;-58
2021/04/30 02:47:40;;;;;;;2.70;1.13;;;;;;;;;;5030366;28;20037;-57
2021/04/30 02:50:07;;;;;;;5.65;1.48;;;;;;;;;;5030982;28;20052;-59
2021/04/30 02:52:32;;;;;;;4.88;1.77;;;;;;;;;;5030156;28;20951;-58
2021/04/30 02:54:58;;;;;;;5.13;2.30;;;;;;;;;;5029677;28;20071;-59
2021/04/30 02:57:25;;;;;;;12.07;2.78;;;;;;;;;;5029015;28;20048;-58
2021/04/30 02:59:51;;;;;;;7.43;2.63;;;;;;;;;;5029898;28;20044;-58
2021/04/30 03:02:17;;;;;;;8.63;1.83;;;;;;;;;;5028939;28;20037;-60
2021/04/30 03:04:43;;;;;;;12.52;1.80;;;;;;;;;;5014881;28;20041;-60
2021/04/30 03:07:09;;;;;;;9.30;1.30;;;;;;;;;;5012024;28;20040;-57
2021/04/30 03:09:35;;;;;;;7.20;1.63;;;;;;;;;;5027191;28;20084;-57
2021/04/30 03:12:01;;;;;;;10.40;1.55;;;;;;;;;;5030302;28;20033;-58
2021/04/30 03:14:27;;;;;;;7.97;1.75;;;;;;;;;;5029599;28;20043;-58
2021/04/30 03:16:53;;;;;;;5.63;1.08;;;;;;;;;;5030880;28;20025;-57
2021/04/30 03:19:19;;;;;;;5.80;1.10;;;;;;;;;;5029885;28;20118;-55
2021/04/30 03:21:45;;;;;;;6.57;1.67;;;;;;;;;;5030633;28;20061;-57
2021/04/30 03:24:11;;;;;;;9.15;1.50;;;;;;;;;;5032006;28;20909;-57
2021/04/30 03:26:37;;;;;;;9.52;1.70;;;;;;;;;;5029095;28;20099;-57
2021/04/30 03:29:03;;;;;;;8.85;1.95;;;;;;;;;;5012386;28;20084;-58
2021/04/30 03:31:29;;;;;;;5.82;1.73;;;;;;;;;;5030244;28;20183;-56
2021/04/30 03:33:55;;;;;;;10.02;2.10;;;;;;;;;;5014634;28;20049;-57
2021/04/30 03:36:21;;;;;;;12.45;2.22;;;;;;;;;;5030030;28;20403;-57
2021/04/30 03:38:48;;;;;;;10.50;2.38;;;;;;;;;;5030313;28;20037;-56
2021/04/30 03:41:14;;;;;;;13.57;2.08;;;;;;;;;;5030686;28;20127;-56
2021/04/30 03:43:40;;;;;;;12.80;2.28;;;;;;;;;;5045140;28;20124;-56
2021/04/30 03:46:06;;;;;;;8.23;1.80;;;;;;;;;;5032016;28;20049;-54
2021/04/30 03:48:32;;;;;;;11.90;1.75;;;;;;;;;;5029804;28;20045;-58
2021/04/30 03:50:58;;;;;;;13.60;1.52;;;;;;;;;;5029711;28;20049;-56
2021/04/30 03:53:24;;;;;;;9.43;1.58;;;;;;;;;;5028780;28;20064;-57
2021/04/30 03:55:50;;;;;;;6.88;1.45;;;;;;;;;;5029764;28;20044;-56
2021/04/30 03:58:17;;;;;;;8.90;1.35;;;;;;;;;;5029920;28;20044;-57
2021/04/30 04:00:42;;;;;;;10.43;1.52;;;;;;;;;;5023919;28;20166;-57
2021/04/30 04:03:08;;;;;;;7.43;1.40;;;;;;;;;;5018990;28;20480;-57
2021/04/30 04:05:34;;;;;;;8.32;1.20;;;;;;;;;;5026505;28;20164;-56
2021/04/30 04:08:00;;;;;;;7.50;1.30;;;;;;;;;;5030371;28;20120;-56
2021/04/30 04:10:26;;;;;;;8.52;1.58;;;;;;;;;;5029657;28;20136;-53
2021/04/30 04:12:52;;;;;;;7.88;0.90;;;;;;;;;;5032319;28;20045;-54
2021/04/30 04:15:18;;;;;;;5.32;0.90;;;;;;;;;;5030701;28;20037;-56
2021/04/30 04:17:44;;;;;;;14.85;1.80;;;;;;;;;;5032538;28;20095;-54
2021/04/30 04:20:10;;;;;;;7.45;1.20;;;;;;;;;;5037568;28;20064;-55
2021/04/30 04:22:36;;;;;;;10.63;1.60;;;;;;;;;;5035918;28;20532;-56
2021/04/30 04:25:03;;;;;;;4.25;1.00;;;;;;;;;;5036261;28;20071;-57
2021/04/30 04:27:28;;;;;;;5.55;1.00;;;;;;;;;;5033218;28;20462;-57
2021/04/30 04:29:54;;;;;;;5.60;1.13;;;;;;;;;;5035255;28;20053;-56
2021/04/30 04:32:20;;;;;;;8.10;1.23;;;;;;;;;;5034144;28;20755;-55
2021/04/30 04:34:46;;;;;;;5.38;1.52;;;;;;;;;;5034921;28;20033;-56
2021/04/30 04:37:12;;;;;;;6.38;1.10;;;;;;;;;;5033716;28;20075;-55
2021/04/30 04:39:38;;;;;;;6.85;1.10;;;;;;;;;;5034178;28;21947;-56
2021/04/30 04:42:04;;;;;;;9.02;1.35;;;;;;;;;;5034838;28;20131;-55
2021/04/30 04:44:30;;;;;;;5.15;0.88;;;;;;;;;;5032937;28;20071;-56
2021/04/30 04:46:56;;;;;;;3.65;1.10;;;;;;;;;;5034729;28;20403;-56
2021/04/30 04:49:22;;;;;;;4.80;1.52;;;;;;;;;;5031074;28;20083;-58
2021/04/30 04:51:48;;;;;;;5.20;1.00;;;;;;;;;;5033901;28;20124;-57
2021/04/30 04:54:14;;;;;;;3.67;0.80;;;;;;;;;;5034591;28;20447;-58
2021/04/30 04:56:41;;;;;;;5.35;1.00;;;;;;;;;;5031550;28;20056;-54
2021/04/30 04:59:07;;;;;;;7.75;1.10;;;;;;;;;;5032258;28;20036;-54
2021/04/30 05:01:32;;;;;;;4.60;0.70;;;;;;;;;;5032250;28;20033;-56
2021/04/30 05:03:58;;;;;;;2.47;0.73;;;;;;;;;;5031526;28;20051;-54
2021/04/30 05:06:24;;;;;;;3.30;0.80;;;;;;;;;;5032525;28;20218;-53
2021/04/30 05:08:50;;;;;;;5.18;0.60;;;;;;;;;;5032411;28;21199;-56
2021/04/30 05:11:16;;;;;;;4.18;0.80;;;;;;;;;;5032719;28;20241;-56
2021/04/30 05:13:48;;;;;;;5.28;0.80;;;;;;;;;;5032268;28;20032;-56
2021/04/30 05:16:32;;;;;;;2.80;0.80;;;;;;;;;;5033408;28;20060;-56
2021/04/30 05:19:08;;;;;;;2.78;0.65;;;;;;;;;;5030912;28;20041;-54
2021/04/30 05:22:04;;;;;;;1.30;0.43;;;;;;;;;;4925258;28;20046;-55
2021/04/30 05:24:27;;;;;;;2.45;0.60;;;;;;;;;;4916882;28;20051;-55
2021/04/30 05:26:53;;;;;;;3.47;0.60;;;;;;;;;;4918266;29;20097;-57
2021/04/30 05:29:19;;;;;;;1.45;0.50;;;;;;;;;;4919741;29;20043;-57
2021/04/30 05:31:45;;;;;;;2.50;0.52;;;;;;;;;;4919775;29;20043;-56
2021/04/30 05:34:11;;;;;;;1.98;0.70;;;;;;;;;;4921281;29;20045;-57
2021/04/30 05:36:36;;;;;;;3.78;0.60;;;;;;;;;;4920159;29;20044;-54
2021/04/30 05:39:04;;;;;;;3.33;0.80;;;;;;;;;;4919737;29;20043;-57
2021/04/30 05:41:30;;;;;;;6.65;0.75;;;;;;;;;;4917980;29;20043;-56
2021/04/30 05:43:56;;;;;;;5.10;0.80;;;;;;;;;;4919952;29;20062;-57
2021/04/30 05:46:22;;;;;;;6.50;0.82;;;;;;;;;;4919307;29;20061;-57
2021/04/30 05:48:48;;;;;;;6.05;0.85;;;;;;;;;;4918737;29;20078;-57
2021/04/30 05:51:15;;;;;;;16.88;1.30;;;;;;;;;;4919369;29;20123;-56
2021/04/30 05:53:41;;;;;;;7.18;1.00;;;;;;;;;;4985183;28;20779;-57
2021/04/30 05:56:07;;;;;;;5.97;0.85;;;;;;;;;;4989949;28;20050;-56
2021/04/30 05:58:33;;;;;;;3.25;0.57;;;;;;;;;;4989067;28;20046;-57
2021/04/30 06:00:58;;;;;;;3.35;0.90;;;;;;;;;;4999179;28;20052;-57
2021/04/30 06:03:24;;;;;;;5.57;0.80;;;;;;;;;;5031059;28;20113;-57
2021/04/30 06:05:50;;;;;;;5.38;0.90;;;;;;;;;;5032521;28;20108;-53
2021/04/30 06:08:16;;;;;;;3.70;0.60;;;;;;;;;;5016747;28;20111;-57
2021/04/30 06:10:42;;;;;;;3.33;0.80;;;;;;;;;;5032999;28;20112;-57
2021/04/30 06:13:08;;;;;;;19.98;1.55;;;;;;;;;;5034051;28;20041;-56
2021/04/30 06:15:34;;;;;;;22.15;2.08;;;;;;;;;;5031723;28;20712;-58
2021/04/30 06:18:00;;;;;;;14.60;2.08;;;;;;;;;;5030322;28;20048;-55
2021/04/30 06:20:26;;;;;;;18.00;1.75;;;;;;;;;;5031263;28;20132;-56
2021/04/30 06:22:52;;;;;;;14.80;1.63;;;;;;;;;;5032254;28;20052;-56
2021/04/30 06:25:18;;;;;;;12.32;1.58;;;;;;;;;;5029413;28;20139;-58
2021/04/30 06:27:44;;;;;;;11.45;1.48;;;;;;;;;;5031179;28;20052;-57
2021/04/30 06:30:10;;;;;;;16.77;1.42;;;;;;;;;;5031226;28;20099;-57
2021/04/30 06:32:38;;;;;;;7.82;1.30;;;;;;;;;;5029888;28;20041;-54
2021/04/30 06:35:05;;;;;;;10.38;1.20;;;;;;;;;;5030992;28;20049;-56
2021/04/30 06:37:31;;;;;;;10.88;1.40;;;;;;;;;;5030748;28;20037;-57
2021/04/30 06:39:57;;;;;;;7.70;1.17;;;;;;;;;;5032952;28;20060;-54
2021/04/30 06:42:22;;;;;;;5.00;1.10;;;;;;;;;;5030831;28;20057;-58
2021/04/30 06:44:48;;;;;;;5.05;1.02;;;;;;;;;;5031259;28;20037;-57
2021/04/30 06:47:14;;;;;;;13.00;1.27;;;;;;;;;;5030582;28;20566;-57
2021/04/30 06:49:40;;;;;;;14.85;1.52;;;;;;;;;;5029231;28;20049;-56
2021/04/30 06:52:06;;;;;;;9.60;1.33;;;;;;;;;;5031121;28;20041;-55
2021/04/30 06:54:32;;;;;;;12.77;1.48;;;;;;;;;;5045359;28;20271;-56
2021/04/30 06:56:58;;;;;;;11.77;1.30;;;;;;;;;;5030607;28;20091;-56
2021/04/30 06:59:24;;;;;;;6.55;1.40;;;;;;;;;;5029452;28;20071;-57
2021/04/30 07:01:50;;;;;;;13.32;1.45;;;;;;;;;;5032938;28;20723;-55
2021/04/30 07:04:17;;;;;;;7.38;1.42;;;;;;;;;;5031319;28;20440;-56
2021/04/30 07:06:43;;;;;;;12.75;1.60;;;;;;;;;;5013787;28;20064;-56
2021/04/30 07:09:09;;;;;;;6.43;1.13;;;;;;;;;;5029077;28;20143;-56
2021/04/30 07:11:35;;;;;;;11.80;1.10;;;;;;;;;;5028722;28;20045;-56
2021/04/30 07:14:02;;;;;;;9.38;1.20;;;;;;;;;;5031509;28;20061;-55
2021/04/30 07:16:28;;;;;;;7.68;1.10;;;;;;;;;;5030689;28;20519;-55
2021/04/30 07:18:54;;;;;;;5.32;1.10;;;;;;;;;;5030841;28;20029;-56
2021/04/30 07:21:20;;;;;;;11.70;1.25;;;;;;;;;;5031190;28;20056;-56
2021/04/30 07:23:46;;;;;;;18.15;1.60;;;;;;;;;;5031429;28;20040;-57
2021/04/30 07:26:12;;;;;;;23.40;2.00;;;;;;;;;;5031025;28;20076;-56
2021/04/30 07:28:38;;;;;;;18.75;2.33;;;;;;;;;;5011595;28;20096;-57
2021/04/30 07:31:03;;;;;;;13.85;1.70;;;;;;;;;;5030377;28;20138;-54
2021/04/30 07:33:29;;;;;;;13.25;1.75;;;;;;;;;;5029973;28;20029;-56
2021/04/30 07:35:56;;;;;;;16.23;1.55;;;;;;;;;;5029255;28;20044;-56
2021/04/30 07:38:22;;;;;;;9.73;1.50;;;;;;;;;;5028401;28;20041;-56
2021/04/30 07:40:47;;;;;;;20.98;2.17;;;;;;;;;;5030839;28;20079;-56
2021/04/30 07:43:14;;;;;;;15.25;1.98;;;;;;;;;;5031308;28;20804;-56
2021/04/30 07:45:43;;;;;;;21.35;2.45;;;;;;;;;;5029103;28;20041;-57
2021/04/30 07:48:10;;;;;;;26.08;3.05;;;;;;;;;;5029752;28;20037;-57
2021/04/30 07:50:36;;;;;;;22.13;2.67;;;;;;;;;;5029166;28;20053;-56
2021/04/30 07:53:02;;;;;;;26.40;2.15;;;;;;;;;;5030480;28;20037;-53
2021/04/30 07:55:28;;;;;;;25.88;2.60;;;;;;;;;;5012591;28;20048;-57
2021/04/30 07:57:54;;;;;;;26.00;2.97;;;;;;;;;;5029953;28;20033;-57
2021/04/30 08:00:20;;;;;;;26.33;2.10;;;;;;;;;;5028854;28;20417;-56
2021/04/30 08:02:49;;;;;;;13.63;2.58;;;;;;;;;;5030942;28;20060;-56
2021/04/30 08:05:14;;;;;;;12.98;1.60;;;;;;;;;;5030669;28;20521;-56
2021/04/30 08:07:43;;;;;;;18.05;1.88;;;;;;;;;;5027843;28;20048;-57
2021/04/30 08:10:10;;;;;;;25.38;2.00;;;;;;;;;;5030119;28;20060;-57
2021/04/30 08:12:36;;;;;;;22.15;2.03;;;;;;;;;;5028601;28;20037;-57
2021/04/30 08:15:02;;;;;;;13.20;1.50;;;;;;;;;;5030192;28;20093;-56
2021/04/30 08:17:28;;;;;;;14.02;1.88;;;;;;;;;;5030645;28;20033;-57
2021/04/30 08:19:57;;;;;;;14.63;1.73;;;;;;;;;;5031276;28;20051;-56
2021/04/30 08:22:24;;;;;;;10.15;1.60;;;;;;;;;;5030239;28;20071;-56
2021/04/30 08:24:50;;;;;;;20.60;2.30;;;;;;;;;;5031910;28;20139;-56
2021/04/30 08:27:16;;;;;;;15.18;3.10;;;;;;;;;;5029771;28;20028;-58
2021/04/30 08:29:42;;;;;;;16.92;2.30;;;;;;;;;;5029692;28;20095;-56
2021/04/30 08:32:07;;;;;;;19.85;2.20;;;;;;;;;;5029963;28;20082;-57
2021/04/30 08:34:33;;;;;;;11.10;2.15;;;;;;;;;;5029771;28;20045;-58
2021/04/30 08:36:59;;;;;;;23.02;3.15;;;;;;;;;;5028944;28;20041;-57
2021/04/30 08:39:25;;;;;;;52.30;4.18;;;;;;;;;;5031331;28;20052;-57
2021/04/30 08:41:51;;;;;;;39.72;3.40;;;;;;;;;;5028713;28;20045;-57
2021/04/30 08:44:17;;;;;;;26.63;3.53;;;;;;;;;;5031176;28;20047;-57
2021/04/30 08:46:44;;;;;;;25.55;3.17;;;;;;;;;;5030470;28;20045;-56
2021/04/30 08:49:10;;;;;;;17.30;2.33;;;;;;;;;;5028879;28;20053;-57
2021/04/30 08:51:37;;;;;;;15.05;2.25;;;;;;;;;;5030212;28;20041;-57
2021/04/30 08:54:04;;;;;;;11.15;1.40;;;;;;;;;;5030401;28;20053;-57
2021/04/30 08:56:30;;;;;;;8.25;1.50;;;;;;;;;;5029670;28;20173;-55
2021/04/30 08:58:56;;;;;;;6.65;2.30;;;;;;;;;;5030239;28;20143;-56
2021/04/30 09:01:22;;;;;;;6.35;1.50;;;;;;;;;;5028038;28;20041;-54
2021/04/30 09:03:49;;;;;;;12.38;1.52;;;;;;;;;;5030605;28;20060;-57
2021/04/30 09:06:18;;;;;;;3.65;1.10;;;;;;;;;;5032848;28;20503;-57
2021/04/30 09:08:49;;;;;;;6.22;1.05;;;;;;;;;;5033113;28;20037;-57
2021/04/30 09:11:31;;;;;;;7.88;1.10;;;;;;;;;;5033708;28;20075;-56
2021/04/30 09:14:15;;;;;;;3.10;1.00;;;;;;;;;;5031903;28;20037;-56
2021/04/30 09:17:00;;;;;;;5.43;1.02;;;;;;;;;;5032324;28;20036;-57
2021/04/30 09:19:33;;;;;;;8.30;1.17;;;;;;;;;;5033113;28;20090;-56
2021/04/30 09:22:00;;;;;;;7.85;1.63;;;;;;;;;;5032470;28;20135;-54
2021/04/30 09:24:25;;;;;;;6.18;0.90;;;;;;;;;;5033290;28;20037;-54
2021/04/30 09:26:51;;;;;;;6.63;1.10;;;;;;;;;;5035271;28;20521;-56
2021/04/30 09:29:19;;;;;;;5.28;1.02;;;;;;;;;;5033045;28;20132;-55
2021/04/30 09:31:45;;;;;;;3.70;1.00;;;;;;;;;;5034097;28;20041;-54
2021/04/30 09:34:24;;;;;;;5.30;0.80;;;;;;;;;;5036064;28;20033;-56
2021/04/30 09:37:13;;;;;;;4.78;1.08;;;;;;;;;;5032475;28;20045;-57
2021/04/30 09:39:48;;;;;;;16.83;1.63;;;;;;;;;;5032881;28;20131;-58
2021/04/30 09:42:18;;;;;;;6.65;0.90;;;;;;;;;;5031986;28;20157;-54
2021/04/30 09:44:45;;;;;;;6.20;1.00;;;;;;;;;;5015594;28;20103;-56
2021/04/30 09:47:12;;;;;;;4.55;1.30;;;;;;;;;;5033686;28;20435;-55
2021/04/30 09:49:38;;;;;;;7.18;1.00;;;;;;;;;;5032155;28;20049;-54
2021/04/30 09:52:06;;;;;;;7.57;0.95;;;;;;;;;;5032538;28;20561;-55
2021/04/30 09:54:32;;;;;;;8.45;1.27;;;;;;;;;;5031174;28;20404;-55
2021/04/30 09:57:05;;;;;;;5.80;1.00;;;;;;;;;;5032743;28;20036;-57
2021/04/30 09:59:31;;;;;;;7.80;1.10;;;;;;;;;;5034088;28;20163;-55
2021/04/30 10:02:09;;;;;;;3.90;1.00;;;;;;;;;;5032311;28;20094;-54
2021/04/30 10:04:36;;;;;;;5.53;1.10;;;;;;;;;;5032130;28;20044;-54
2021/04/30 10:07:05;;;;;;;5.65;1.10;;;;;;;;;;5032386;28;20045;-54
2021/04/30 10:09:32;;;;;;;10.48;1.42;;;;;;;;;;5032392;28;20065;-56
2021/04/30 10:11:58;;;;;;;5.65;1.23;;;;;;;;;;5032287;28;20036;-57
2021/04/30 10:14:24;;;;;;;17.60;1.90;;;;;;;;;;5031629;28;20136;-56
2021/04/30 10:16:51;;;;;;;31.13;4.95;;;;;;;;;;5030677;28;20136;-57
2021/04/30 10:19:17;;;;;;;30.35;2.30;;;;;;;;;;5031969;28;20133;-57
2021/04/30 10:21:44;;;;;;;22.85;2.97;;;;;;;;;;5031062;28;20515;-54
2021/04/30 10:24:16;;;;;;;19.20;2.45;;;;;;;;;;5030623;28;20056;-57
2021/04/30 10:26:42;;;;;;;26.02;2.38;;;;;;;;;;5030359;28;20063;-57
2021/04/30 10:29:10;;;;;;;11.95;1.80;;;;;;;;;;5031898;28;20052;-55
2021/04/30 10:31:39;;;;;;;12.13;1.70;;;;;;;;;;5031178;28;20541;-55
2021/04/30 10:34:13;;;;;;;12.52;1.40;;;;;;;;;;5032936;28;20048;-55
2021/04/30 10:36:38;;;;;;;;;;;;;;;;;;5031452;28;20104;-57
2021/04/30 10:39:05;;;;;;;4.40;1.00;;;;;;;;;;5031284;28;20162;-57
2021/04/30 10:41:34;;;;;;;10.00;1.73;;;;;;;;;;5030388;28;20041;-58
2021/04/30 10:44:10;;;;;;;9.88;1.50;;;;;;;;;;5031693;28;20061;-56
2021/04/30 10:46:35;;;;;;;7.63;1.40;;;;;;;;;;5029792;28;20562;-56
2021/04/30 10:49:04;;;;;;;6.90;0.95;;;;;;;;;;5029220;28;20052;-57
2021/04/30 10:51:33;;;;;;;7.60;1.10;;;;;;;;;;5031332;28;20142;-56
2021/04/30 10:54:24;;;;;;;10.35;1.27;;;;;;;;;;5030991;28;20108;-57
2021/04/30 10:56:56;;;;;;;9.82;1.35;;;;;;;;;;5016074;28;20047;-57
2021/04/30 10:59:27;;;;;;;7.38;1.02;;;;;;;;;;5031325;28;20045;-56
2021/04/30 11:01:58;;;;;;;7.20;1.05;;;;;;;;;;5030931;28;20040;-55
2021/04/30 11:04:26;;;;;;;6.97;1.20;;;;;;;;;;5029052;28;20049;-54
2021/04/30 11:06:52;;;;;;;10.50;1.40;;;;;;;;;;5029644;28;20036;-55
2021/04/30 11:09:21;;;;;;;7.63;1.30;;;;;;;;;;5029904;28;20053;-57
2021/04/30 11:11:47;;;;;;;5.85;1.17;;;;;;;;;;5030018;28;20052;-54
2021/04/30 11:14:24;;;;;;;8.32;1.35;;;;;;;;;;5031368;28;20043;-56
2021/04/30 11:16:52;;;;;;;6.63;1.25;;;;;;;;;;5030789;28;20514;-55
2021/04/30 11:19:18;;;;;;;11.45;1.48;;;;;;;;;;5030121;28;20037;-58
2021/04/30 11:21:50;;;;;;;14.77;1.40;;;;;;;;;;5030346;28;20064;-57
2021/04/30 11:24:32;;;;;;;12.05;1.60;;;;;;;;;;5030720;28;20087;-57
2021/04/30 11:27:24;;;;;;;8.30;1.40;;;;;;;;;;5026759;28;20088;-57
2021/04/30 11:29:52;;;;;;;11.95;1.90;;;;;;;;;;5026875;28;20045;-57
2021/04/30 11:32:24;;;;;;;15.27;1.80;;;;;;;;;;5030496;28;20846;-58
2021/04/30 11:34:51;;;;;;;9.40;1.20;;;;;;;;;;5032492;28;20065;-55
2021/04/30 11:37:21;;;;;;;9.27;1.50;;;;;;;;;;5030735;28;20395;-56
2021/04/30 11:39:48;;;;;;;7.00;1.25;;;;;;;;;;5028191;28;20120;-56
2021/04/30 11:42:14;;;;;;;11.20;1.10;;;;;;;;;;5030438;28;20482;-55
2021/04/30 11:44:43;;;;;;;5.28;1.50;;;;;;;;;;5030526;28;20075;-56
2021/04/30 11:47:19;;;;;;;7.03;1.02;;;;;;;;;;5031045;28;20873;-56
2021/04/30 11:49:45;;;;;;;5.38;1.42;;;;;;;;;;5029161;28;20056;-57
2021/04/30 11:52:12;;;;;;;7.20;1.40;;;;;;;;;;5031576;28;20052;-57
2021/04/30 11:54:38;;;;;;;13.10;1.50;;;;;;;;;;5031071;28;20044;-55
2021/04/30 11:57:06;;;;;;;7.57;1.58;;;;;;;;;;5029715;28;20575;-56
2021/04/30 11:59:33;;;;;;;10.98;1.50;;;;;;;;;;5030433;28;20037;-57
2021/04/30 12:02:06;;;;;;;6.35;1.70;;;;;;;;;;5032590;28;20377;-56
2021/04/30 12:04:37;;;;;;;8.13;1.40;;;;;;;;;;5030781;28;20047;-56
2021/04/30 12:07:04;;;;;;;7.57;1.40;;;;;;;;;;5031452;28;20064;-57
2021/04/30 12:09:30;;;;;;;12.98;1.63;;;;;;;;;;5028576;28;20179;-54
2021/04/30 12:12:08;;;;;;;14.52;2.10;;;;;;;;;;5029958;28;20045;-55
2021/04/30 12:14:42;;;;;;;10.13;1.90;;;;;;;;;;5028472;28;20044;-56
2021/04/30 12:17:07;;;;;;;;;;;;;;;;;;5029685;28;20076;-55
2021/04/30 12:19:33;;;;;;;6.15;1.27;;;;;;;;;;5030179;28;19923;-57
2021/04/30 12:21:59;;;;;;;4.70;1.10;;;;;;;;;;5029053;28;20040;-57
2021/04/30 12:24:25;;;;;;;10.57;1.83;;;;;;;;;;5027198;28;20507;-55
2021/04/30 12:26:51;;;;;;;9.68;1.50;;;;;;;;;;5014654;28;20116;-55
2021/04/30 12:29:17;;;;;;;9.60;1.27;;;;;;;;;;5030195;28;20053;-55
2021/04/30 12:31:46;;;;;;;11.75;1.30;;;;;;;;;;5024509;28;20048;-54
2021/04/30 12:34:13;;;;;;;5.68;1.35;;;;;;;;;;5031587;28;20086;-57
2021/04/30 12:36:41;;;;;;;5.63;1.30;;;;;;;;;;5029120;28;20112;-56
2021/04/30 12:39:12;;;;;;;11.77;1.60;;;;;;;;;;5031517;28;20131;-56
2021/04/30 12:41:49;;;;;;;8.95;1.30;;;;;;;;;;5033089;28;20132;-53
2021/04/30 12:44:15;;;;;;;5.25;1.40;;;;;;;;;;5033408;28;20049;-55
2021/04/30 12:46:41;;;;;;;10.68;1.55;;;;;;;;;;5032877;28;20127;-55
2021/04/30 12:49:08;;;;;;;9.07;1.42;;;;;;;;;;5034095;28;21310;-56
2021/04/30 12:51:39;;;;;;;13.77;1.33;;;;;;;;;;5032834;28;20131;-57
2021/04/30 12:54:06;;;;;;;12.40;1.65;;;;;;;;;;5034449;28;20029;-55
2021/04/30 12:56:31;;;;;;;13.98;1.95;;;;;;;;;;5032472;28;20124;-55
2021/04/30 12:59:13;;;;;;;5.90;1.33;;;;;;;;;;5033640;28;20124;-56
2021/04/30 13:01:42;;;;;;;14.38;2.38;;;;;;;;;;5034401;28;20038;-57
2021/04/30 13:04:09;;;;;;;21.77;2.40;;;;;;;;;;5035415;28;20043;-56
2021/04/30 13:06:35;;;;;;;15.00;1.70;;;;;;;;;;5032305;28;20831;-57
2021/04/30 13:09:02;;;;;;;6.15;1.17;;;;;;;;;;5033889;28;20092;-54
2021/04/30 13:11:28;;;;;;;5.18;1.10;;;;;;;;;;5035300;28;20037;-57
2021/04/30 13:14:01;;;;;;;6.32;1.30;;;;;;;;;;5034249;28;20040;-56
2021/04/30 13:16:34;;;;;;;7.05;1.23;;;;;;;;;;5032397;28;20047;-56
2021/04/30 13:19:06;;;;;;;8.13;1.33;;;;;;;;;;5027979;28;20037;-56
2021/04/30 13:21:33;;;;;;;7.57;1.40;;;;;;;;;;5033252;28;20296;-55
2021/04/30 13:24:17;;;;;;;4.03;0.95;;;;;;;;;;5031226;28;20063;-57
2021/04/30 13:27:04;;;;;;;8.00;1.40;;;;;;;;;;5032852;28;20042;-57
2021/04/30 13:29:31;;;;;;;10.48;1.23;;;;;;;;;;5033191;28;21970;-56
2021/04/30 13:32:00;;;;;;;14.25;1.33;;;;;;;;;;5032617;28;20033;-55
2021/04/30 13:34:33;;;;;;;17.55;2.00;;;;;;;;;;5034321;28;20040;-55
2021/04/30 13:37:02;;;;;;;27.50;3.35;;;;;;;;;;5033038;28;20043;-58
2021/04/30 13:39:32;;;;;;;34.75;3.42;;;;;;;;;;5032407;28;22133;-58
2021/04/30 13:41:58;;;;;;;20.63;2.60;;;;;;;;;;5034992;28;22037;-56
2021/04/30 13:44:25;;;;;;;17.23;2.58;;;;;;;;;;5033999;28;20767;-58
2021/04/30 13:46:55;;;;;;;30.45;3.38;;;;;;;;;;5033976;28;20128;-55
2021/04/30 13:49:21;;;;;;;21.65;3.22;;;;;;;;;;5032644;28;20049;-58
2021/04/30 13:51:47;;;;;;;21.00;2.45;;;;;;;;;;5032464;28;20052;-56
2021/04/30 13:54:13;;;;;;;16.17;2.10;;;;;;;;;;5032914;28;20046;-56
2021/04/30 13:56:40;;;;;;;14.20;2.38;;;;;;;;;;5030177;28;20499;-57
2021/04/30 13:59:06;;;;;;;58.03;5.07;;;;;;;;;;5030986;28;20037;-55
2021/04/30 14:01:33;;;;;;;24.80;2.63;;;;;;;;;;5032870;28;21997;-57
2021/04/30 14:03:59;;;;;;;15.75;2.30;;;;;;;;;;5033626;28;20034;-57
2021/04/30 14:06:27;;;;;;;29.42;2.97;;;;;;;;;;5031054;28;20041;-57
2021/04/30 14:08:53;;;;;;;24.70;2.42;;;;;;;;;;5032619;28;20232;-57
2021/04/30 14:11:20;;;;;;;32.88;3.83;;;;;;;;;;5032423;28;20546;-58
2021/04/30 14:13:46;;;;;;;29.30;2.72;;;;;;;;;;5033583;28;20052;-55
2021/04/30 14:16:12;;;;;;;28.63;3.08;;;;;;;;;;5030860;28;20632;-56
2021/04/30 14:18:38;;;;;;;16.08;2.25;;;;;;;;;;5031871;28;20037;-57
2021/04/30 14:21:04;;;;;;;12.32;2.40;;;;;;;;;;5031175;28;20041;-58
2021/04/30 14:23:30;;;;;;;15.50;2.15;;;;;;;;;;5032133;28;20044;-57
2021/04/30 14:25:56;;;;;;;12.60;1.80;;;;;;;;;;5032969;28;20041;-57
2021/04/30 14:28:21;;;;;;;10.30;1.65;;;;;;;;;;5031451;28;20057;-55
2021/04/30 14:30:47;;;;;;;7.70;1.40;;;;;;;;;;5033318;28;20051;-57
2021/04/30 14:33:13;;;;;;;9.68;1.58;;;;;;;;;;5034067;28;20595;-58
2021/04/30 14:35:39;;;;;;;8.52;1.20;;;;;;;;;;5029372;28;20041;-55
2021/04/30 14:38:05;;;;;;;5.65;0.98;;;;;;;;;;5032787;28;20514;-55
2021/04/30 14:40:31;;;;;;;5.25;1.10;;;;;;;;;;5031954;28;20538;-57